createdAt,value
2022-12-04T00:00:49.314Z,22.60
2022-12-04T00:03:18.876Z,22.25
2022-12-04T00:05:48.312Z,21.35
2022-12-04T00:08:17.852Z,21.70
2022-12-04T00:10:47.440Z,21.17
2022-12-04T00:13:19.801Z,21.98
2022-12-04T00:15:49.305Z,23.05
2022-12-04T00:18:18.956Z,22.63
2022-12-04T00:20:48.467Z,23.05
2022-12-04T00:23:17.936Z,22.33
2022-12-04T00:25:48.868Z,21.83
2022-12-04T00:28:21.858Z,23.92
2022-12-04T00:30:51.257Z,22.05
2022-12-04T00:33:20.727Z,21.80
2022-12-04T00:35:50.273Z,22.30
2022-12-04T00:38:19.730Z,22.20
2022-12-04T00:40:52.444Z,23.02
2022-12-04T00:43:25.613Z,23.42
2022-12-04T00:45:55.229Z,22.77
2022-12-04T00:48:25.133Z,20.92
2022-12-04T00:50:55.544Z,23.23
2022-12-04T00:53:25.024Z,22.45
2022-12-04T00:55:54.520Z,23.38
2022-12-04T00:58:26.984Z,24.23
2022-12-04T01:01:04.799Z,23.48
2022-12-04T01:03:34.587Z,23.85
2022-12-04T01:06:04.454Z,22.55
2022-12-04T01:08:35.982Z,23.77
2022-12-04T01:11:08.443Z,21.73
2022-12-04T01:13:40.476Z,23.98
2022-12-04T01:16:10.155Z,21.35
2022-12-04T01:18:39.641Z,24.33
2022-12-04T01:21:09.255Z,23.75
2022-12-04T01:23:38.830Z,24.40
2022-12-04T01:26:08.644Z,24.40
2022-12-04T01:28:40.771Z,21.70
2022-12-04T01:31:11.641Z,22.98
2022-12-04T01:33:41.440Z,23.55
2022-12-04T01:36:12.916Z,23.40
2022-12-04T01:38:42.480Z,20.95
2022-12-04T01:41:14.191Z,21.98
2022-12-04T01:43:46.516Z,21.55
2022-12-04T01:46:16.124Z,23.20
2022-12-04T01:48:48.451Z,21.80
2022-12-04T01:51:20.517Z,24.63
2022-12-04T01:53:53.370Z,23.15
2022-12-04T01:56:23.832Z,23.13
2022-12-04T01:58:58.039Z,23.38
2022-12-04T02:01:29.127Z,23.40
2022-12-04T02:03:58.686Z,22.00
2022-12-04T02:06:28.169Z,24.20
2022-12-04T02:08:57.664Z,22.23
2022-12-04T02:11:32.749Z,22.25
2022-12-04T02:14:10.955Z,23.83
2022-12-04T02:16:43.810Z,22.20
2022-12-04T02:19:36.796Z,24.00
2022-12-04T02:22:11.859Z,22.87
2022-12-04T02:24:50.628Z,22.52
2022-12-04T02:27:32.441Z,24.85
2022-12-04T02:30:07.392Z,22.30
2022-12-04T02:32:42.538Z,24.25
2022-12-04T02:35:17.486Z,23.25
2022-12-04T02:37:48.716Z,21.90
2022-12-04T02:40:25.255Z,22.73
2022-12-04T02:42:58.667Z,22.92
2022-12-04T02:45:33.188Z,25.42
2022-12-04T02:48:04.336Z,24.40
2022-12-04T02:50:35.551Z,25.73
2022-12-04T02:53:08.767Z,24.17
2022-12-04T02:55:40.827Z,23.77
2022-12-04T02:58:14.462Z,24.13
2022-12-04T03:00:48.380Z,24.73
2022-12-04T03:03:21.678Z,23.05
2022-12-04T03:05:56.757Z,22.98
2022-12-04T03:08:29.389Z,24.63
2022-12-04T03:11:01.063Z,23.50
2022-12-04T03:13:34.262Z,22.73
2022-12-04T03:16:10.699Z,24.40
2022-12-04T03:18:43.184Z,23.27
2022-12-04T03:21:16.842Z,22.45
2022-12-04T03:23:49.079Z,24.85
2022-12-04T03:26:22.452Z,23.42
2022-12-04T03:28:57.211Z,23.27
2022-12-04T03:31:35.543Z,23.05
2022-12-04T03:34:06.671Z,23.85
2022-12-04T03:36:39.621Z,23.45
2022-12-04T03:39:15.632Z,23.23
2022-12-04T03:41:57.820Z,25.55
2022-12-04T03:44:30.261Z,24.10
2022-12-04T03:47:07.691Z,22.25
2022-12-04T03:49:45.077Z,23.95
2022-12-04T03:52:18.218Z,23.70
2022-12-04T03:54:50.620Z,23.17
2022-12-04T03:57:23.152Z,21.33
2022-12-04T03:59:56.293Z,23.85
2022-12-04T04:02:31.603Z,22.98
2022-12-04T04:05:02.327Z,22.02
2022-12-04T04:07:36.066Z,22.50
2022-12-04T04:10:08.794Z,23.10
2022-12-04T04:12:41.054Z,23.05
2022-12-04T04:15:31.067Z,21.80
2022-12-04T04:18:17.044Z,23.10
2022-12-04T04:21:00.542Z,24.83
2022-12-04T04:23:45.418Z,23.88
2022-12-04T04:26:15.792Z,21.83
2022-12-04T04:28:45.616Z,21.70
2022-12-04T04:31:21.062Z,23.58
2022-12-04T04:33:56.925Z,22.40
2022-12-04T04:36:29.922Z,21.65
2022-12-04T04:39:03.815Z,24.02
2022-12-04T04:41:39.685Z,24.17
2022-12-04T04:44:15.522Z,32.25
2022-12-04T04:46:49.386Z,33.60
2022-12-04T04:49:22.793Z,31.03
2022-12-04T04:51:52.251Z,36.80
2022-12-04T04:54:21.970Z,27.10
2022-12-04T04:56:51.438Z,27.90
2022-12-04T04:59:20.807Z,25.20
2022-12-04T05:01:50.830Z,23.77
2022-12-04T05:04:22.835Z,22.50
2022-12-04T05:06:52.264Z,21.80
2022-12-04T05:09:21.659Z,22.40
2022-12-04T05:11:51.107Z,21.97
2022-12-04T05:14:20.472Z,23.40
2022-12-04T05:16:49.914Z,22.30
2022-12-04T05:19:34.408Z,22.27
2022-12-04T05:22:03.812Z,20.17
2022-12-04T05:24:33.186Z,24.67
2022-12-04T05:27:02.652Z,21.80
2022-12-04T05:29:35.857Z,22.47
2022-12-04T05:32:05.791Z,22.23
2022-12-04T05:34:37.841Z,23.73
2022-12-04T05:37:07.228Z,21.50
2022-12-04T05:39:36.959Z,23.10
2022-12-04T05:42:06.582Z,22.40
2022-12-04T05:44:36.133Z,24.35
2022-12-04T05:47:05.670Z,22.10
2022-12-04T05:49:38.211Z,22.20
2022-12-04T05:52:10.599Z,23.53
2022-12-04T05:54:40.319Z,24.20
2022-12-04T05:57:09.831Z,21.48
2022-12-04T05:59:39.427Z,24.65
2022-12-04T06:02:08.922Z,23.10
2022-12-04T06:04:42.214Z,25.88
2022-12-04T06:07:12.135Z,22.60
2022-12-04T06:09:41.519Z,22.90
2022-12-04T06:12:11.045Z,23.15
2022-12-04T06:14:40.625Z,23.75
2022-12-04T06:17:10.075Z,24.00
2022-12-04T06:19:42.446Z,24.45
2022-12-04T06:22:11.875Z,22.38
2022-12-04T06:24:41.564Z,23.55
2022-12-04T06:27:27.390Z,22.33
2022-12-04T06:29:57.819Z,25.38
2022-12-04T06:32:27.532Z,24.60
2022-12-04T06:34:59.677Z,23.73
2022-12-04T06:37:29.107Z,25.98
2022-12-04T06:39:58.740Z,24.00
2022-12-04T06:42:28.431Z,25.92
2022-12-04T06:44:57.868Z,23.90
2022-12-04T06:47:27.220Z,24.47
2022-12-04T06:49:59.440Z,25.75
2022-12-04T06:52:28.905Z,26.60
2022-12-04T06:54:59.097Z,24.10
2022-12-04T06:57:28.496Z,25.13
2022-12-04T06:59:58.214Z,27.85
2022-12-04T07:02:27.856Z,24.92
2022-12-04T07:05:00.176Z,24.15
2022-12-04T07:07:29.574Z,26.02
2022-12-04T07:09:59.040Z,26.45
2022-12-04T07:12:28.451Z,25.00
2022-12-04T07:14:57.857Z,24.80
2022-12-04T07:17:27.251Z,26.17
2022-12-04T07:19:56.886Z,27.17
2022-12-04T07:22:29.245Z,47.72
2022-12-04T07:24:58.634Z,54.80
2022-12-04T07:27:28.021Z,33.10
2022-12-04T07:29:57.739Z,25.95
2022-12-04T07:32:27.338Z,27.80
2022-12-04T07:34:56.792Z,26.90
2022-12-04T07:37:28.844Z,27.80
2022-12-04T07:39:58.644Z,26.13
2022-12-04T07:42:28.148Z,26.30
2022-12-04T07:44:57.546Z,27.95
2022-12-04T07:47:26.943Z,26.42
2022-12-04T07:49:56.500Z,32.00
2022-12-04T07:52:25.984Z,33.15
2022-12-04T07:54:57.958Z,30.90
2022-12-04T07:57:27.414Z,26.05
2022-12-04T07:59:57.144Z,26.85
2022-12-04T08:02:26.831Z,27.42
2022-12-04T08:04:56.326Z,26.67
2022-12-04T08:07:25.753Z,27.73
2022-12-04T08:09:57.940Z,25.52
2022-12-04T08:12:27.629Z,26.08
2022-12-04T08:14:56.988Z,26.35
2022-12-04T08:17:26.504Z,24.30
2022-12-04T08:19:56.175Z,27.70
2022-12-04T08:22:25.880Z,26.60
2022-12-04T08:24:57.987Z,28.13
2022-12-04T08:27:27.392Z,25.98
2022-12-04T08:29:57.022Z,26.13
2022-12-04T08:32:26.723Z,26.60
2022-12-04T08:34:56.221Z,26.02
2022-12-04T08:37:27.590Z,26.27
2022-12-04T08:39:59.559Z,31.63
2022-12-04T08:42:28.970Z,24.23
2022-12-04T08:44:58.384Z,27.42
2022-12-04T08:47:27.899Z,34.67
2022-12-04T08:49:57.620Z,27.05
2022-12-04T08:52:27.143Z,27.13
2022-12-04T08:54:59.461Z,28.45
2022-12-04T08:57:29.004Z,29.27
2022-12-04T08:59:58.691Z,27.60
2022-12-04T09:02:28.348Z,28.92
2022-12-04T09:04:57.813Z,24.70
2022-12-04T09:07:27.281Z,25.70
2022-12-04T09:09:59.496Z,23.88
2022-12-04T09:12:29.076Z,25.57
2022-12-04T09:14:58.719Z,25.23
2022-12-04T09:17:28.169Z,31.97
2022-12-04T09:20:00.902Z,30.67
2022-12-04T09:22:57.782Z,26.70
2022-12-04T09:25:25.722Z,26.33
2022-12-04T09:27:55.126Z,26.57
2022-12-04T09:30:24.494Z,25.47
2022-12-04T09:32:53.887Z,28.17
2022-12-04T09:35:23.376Z,27.90
2022-12-04T09:37:52.791Z,25.77
2022-12-04T09:40:36.904Z,24.70
2022-12-04T09:43:13.882Z,25.27
2022-12-04T09:45:45.775Z,27.57
2022-12-04T09:48:15.408Z,25.80
2022-12-04T09:50:46.454Z,24.20
2022-12-04T09:53:19.766Z,24.73
2022-12-04T09:55:57.695Z,25.77
2022-12-04T09:58:31.731Z,24.90
2022-12-04T10:01:01.522Z,25.13
2022-12-04T10:03:32.260Z,24.07
2022-12-04T10:06:06.167Z,24.47
2022-12-04T10:08:38.322Z,22.90
2022-12-04T10:11:15.829Z,23.50
2022-12-04T10:13:58.693Z,22.63
2022-12-04T10:16:31.441Z,22.33
2022-12-04T10:19:06.627Z,24.90
2022-12-04T10:21:43.133Z,20.60
2022-12-04T10:24:19.958Z,23.30
2022-12-04T10:26:52.307Z,24.10
2022-12-04T10:29:24.536Z,28.67
2022-12-04T10:31:57.087Z,23.70
2022-12-04T10:34:28.856Z,28.30
2022-12-04T10:37:02.054Z,26.47
2022-12-04T10:39:37.152Z,25.67
2022-12-04T10:42:26.639Z,25.80
2022-12-04T10:44:56.712Z,25.13
2022-12-04T10:47:26.725Z,23.70
2022-12-04T10:50:01.716Z,25.03
2022-12-04T10:52:31.189Z,23.70
2022-12-04T10:55:01.744Z,24.73
2022-12-04T10:57:41.795Z,24.03
2022-12-04T11:00:27.425Z,23.57
2022-12-04T11:02:59.048Z,24.47
2022-12-04T11:05:32.056Z,26.50
2022-12-04T11:08:03.178Z,24.80
2022-12-04T11:10:37.112Z,23.77
2022-12-04T11:13:17.259Z,26.27
2022-12-04T11:15:48.112Z,25.17
2022-12-04T11:18:20.990Z,24.93
2022-12-04T11:20:55.517Z,24.83
2022-12-04T11:23:25.325Z,24.53
2022-12-04T11:26:02.075Z,26.93
2022-12-04T11:28:42.714Z,26.80
2022-12-04T11:31:19.360Z,25.60
2022-12-04T11:33:50.809Z,22.67
2022-12-04T11:36:24.885Z,22.73
2022-12-04T11:38:54.687Z,23.20
2022-12-04T11:41:29.366Z,24.37
2022-12-04T11:44:02.094Z,25.10
2022-12-04T11:46:34.172Z,23.80
2022-12-04T11:49:05.318Z,24.87
2022-12-04T11:51:47.301Z,26.57
2022-12-04T11:54:24.243Z,24.97
2022-12-04T11:56:59.927Z,34.70
2022-12-04T11:59:51.235Z,43.97
2022-12-04T12:02:37.386Z,24.63
2022-12-04T12:05:31.487Z,24.93
2022-12-04T12:08:04.989Z,21.90
2022-12-04T12:10:44.395Z,21.83
2022-12-04T12:13:21.763Z,23.50
2022-12-04T12:16:00.830Z,23.27
2022-12-04T12:18:44.684Z,21.37
2022-12-04T12:21:19.331Z,23.67
2022-12-04T12:23:57.645Z,24.53
2022-12-04T12:26:30.157Z,22.07
2022-12-04T12:29:17.303Z,23.07
2022-12-04T12:32:02.574Z,20.23
2022-12-04T12:34:36.953Z,21.23
2022-12-04T12:37:16.298Z,21.43
2022-12-04T12:39:51.238Z,20.77
2022-12-04T12:42:24.559Z,20.50
2022-12-04T12:44:58.966Z,21.40
2022-12-04T12:47:33.766Z,20.37
2022-12-04T12:50:06.378Z,19.83
2022-12-04T12:52:38.839Z,20.77
2022-12-04T12:55:17.913Z,21.33
2022-12-04T12:57:50.502Z,21.67
2022-12-04T13:00:22.882Z,24.53
2022-12-04T13:02:58.805Z,22.53
2022-12-04T13:05:32.436Z,30.37
2022-12-04T13:08:06.061Z,25.37
2022-12-04T13:10:39.109Z,27.80
2022-12-04T13:13:11.322Z,20.33
2022-12-04T13:15:44.683Z,24.77
2022-12-04T13:18:24.695Z,21.27
2022-12-04T13:20:56.408Z,18.33
2022-12-04T13:23:40.217Z,19.70
2022-12-04T13:26:13.301Z,17.87
2022-12-04T13:28:52.392Z,19.50
2022-12-04T13:31:28.879Z,17.07
2022-12-04T13:34:25.303Z,16.70
2022-12-04T13:37:15.088Z,18.30
2022-12-04T13:40:18.976Z,19.80
2022-12-04T13:42:48.837Z,18.03
2022-12-04T13:45:29.760Z,16.73
2022-12-04T13:48:01.030Z,16.70
2022-12-04T13:50:35.099Z,17.90
2022-12-04T13:53:04.728Z,17.73
2022-12-04T13:55:36.176Z,17.70
2022-12-04T13:58:08.360Z,18.23
2022-12-04T14:00:39.247Z,18.70
2022-12-04T14:03:10.329Z,17.37
2022-12-04T14:05:46.267Z,17.47
2022-12-04T14:08:25.999Z,21.50
2022-12-04T14:11:03.805Z,18.83
2022-12-04T14:13:44.587Z,18.63
2022-12-04T14:16:23.125Z,18.13
2022-12-04T14:18:54.946Z,19.53
2022-12-04T14:21:27.233Z,17.40
2022-12-04T14:23:56.712Z,18.10
2022-12-04T14:27:10.570Z,20.53
2022-12-04T14:29:34.076Z,17.53
2022-12-04T14:32:10.554Z,32.60
2022-12-04T14:34:40.529Z,21.13
2022-12-04T14:37:21.879Z,21.43
2022-12-04T14:39:54.473Z,17.37
2022-12-04T14:42:26.663Z,17.30
2022-12-04T14:44:58.949Z,20.90
2022-12-04T14:47:37.691Z,22.13
2022-12-04T14:50:31.086Z,21.20
2022-12-04T14:53:09.231Z,26.33
2022-12-04T14:55:43.956Z,17.07
2022-12-04T14:58:32.200Z,17.63
2022-12-04T15:01:03.213Z,18.10
2022-12-04T15:03:34.651Z,16.57
2022-12-04T15:06:05.054Z,16.90
2022-12-04T15:08:39.574Z,17.97
2022-12-04T15:11:21.809Z,17.67
2022-12-04T15:13:51.338Z,16.60
2022-12-04T15:16:22.653Z,16.37
2022-12-04T15:18:59.105Z,18.93
2022-12-04T15:21:37.345Z,18.77
2022-12-04T15:24:14.515Z,18.63
2022-12-04T15:26:44.120Z,18.43
2022-12-04T15:29:19.411Z,19.10
2022-12-04T15:31:56.524Z,18.87
2022-12-04T15:34:28.203Z,18.00
2022-12-04T15:37:03.079Z,18.90
2022-12-04T15:39:38.102Z,16.23
2022-12-04T15:42:09.337Z,18.10
2022-12-04T15:44:39.483Z,19.20
2022-12-04T15:47:20.397Z,19.17
2022-12-04T15:49:49.869Z,17.20
2022-12-04T15:52:21.678Z,22.93
2022-12-04T15:54:57.171Z,19.07
2022-12-04T15:57:30.256Z,20.53
2022-12-04T16:00:02.881Z,34.33
2022-12-04T16:02:34.661Z,21.80
2022-12-04T16:05:14.224Z,24.90
2022-12-04T16:07:51.622Z,22.30
2022-12-04T16:10:26.406Z,25.10
2022-12-04T16:12:56.589Z,20.60
2022-12-04T16:15:27.616Z,20.50
2022-12-04T16:17:57.104Z,19.73
2022-12-04T16:20:26.656Z,20.23
2022-12-04T16:22:57.202Z,18.47
2022-12-04T16:25:31.601Z,19.23
2022-12-04T16:28:01.110Z,17.60
2022-12-04T16:30:32.168Z,19.03
2022-12-04T16:33:01.764Z,18.53
2022-12-04T16:35:31.637Z,18.87
2022-12-04T16:38:01.179Z,19.27
2022-12-04T16:40:33.281Z,19.47
2022-12-04T16:43:02.752Z,18.00
2022-12-04T16:45:34.788Z,18.40
2022-12-04T16:48:04.401Z,18.70
2022-12-04T16:50:33.916Z,19.13
2022-12-04T16:53:03.454Z,20.37
2022-12-04T16:55:38.592Z,19.37
2022-12-04T16:58:08.711Z,26.23
2022-12-04T17:00:39.241Z,21.87
2022-12-04T17:03:10.406Z,19.63
2022-12-04T17:05:39.884Z,24.73
2022-12-04T17:08:09.459Z,30.97
2022-12-04T17:10:41.610Z,34.70
2022-12-04T17:13:11.199Z,30.70
2022-12-04T17:15:40.789Z,25.53
2022-12-04T17:18:13.889Z,22.43
2022-12-04T17:20:46.865Z,26.00
2022-12-04T17:23:16.294Z,20.57
2022-12-04T17:25:48.308Z,18.30
2022-12-04T17:28:17.831Z,19.17
2022-12-04T17:30:48.616Z,18.40
2022-12-04T17:33:18.240Z,19.10
2022-12-04T17:35:47.729Z,19.03
2022-12-04T17:38:17.326Z,20.83
2022-12-04T17:41:00.621Z,17.90
2022-12-04T17:43:30.948Z,17.80
2022-12-04T17:46:00.538Z,20.00
2022-12-04T17:48:30.160Z,19.03
2022-12-04T17:51:07.531Z,18.47
2022-12-04T17:53:37.099Z,31.97
2022-12-04T17:56:11.974Z,24.23
2022-12-04T17:58:41.688Z,29.07
2022-12-04T18:01:13.064Z,18.10
2022-12-04T18:03:43.915Z,20.10
2022-12-04T18:06:14.833Z,19.70
2022-12-04T18:08:49.768Z,20.90
2022-12-04T18:11:23.386Z,21.53
2022-12-04T18:13:57.263Z,19.57
2022-12-04T18:16:27.253Z,19.03
2022-12-04T18:18:57.041Z,18.20
2022-12-04T18:21:26.878Z,17.93
2022-12-04T18:23:59.273Z,18.27
2022-12-04T18:26:35.378Z,18.80
2022-12-04T18:29:05.419Z,19.20
2022-12-04T18:31:35.478Z,18.67
2022-12-04T18:34:04.935Z,18.30
2022-12-04T18:36:35.279Z,16.47
2022-12-04T18:39:08.305Z,17.47
2022-12-04T18:41:40.593Z,17.47
2022-12-04T18:44:10.073Z,20.73
2022-12-04T18:46:39.883Z,18.23
2022-12-04T18:49:09.769Z,20.43
2022-12-04T18:51:40.789Z,19.27
2022-12-04T18:54:14.072Z,18.13
2022-12-04T18:56:46.576Z,18.80
2022-12-04T18:59:17.615Z,19.17
2022-12-04T19:01:47.099Z,18.90
2022-12-04T19:04:18.367Z,17.10
2022-12-04T19:06:50.189Z,17.30
2022-12-04T19:09:35.421Z,17.47
2022-12-04T19:12:14.641Z,25.30
2022-12-04T19:14:44.252Z,30.50
2022-12-04T19:17:13.708Z,25.20
2022-12-04T19:19:43.129Z,51.67
2022-12-04T19:22:12.599Z,55.60
2022-12-04T19:24:42.539Z,35.77
2022-12-04T19:27:14.666Z,23.57
2022-12-04T19:29:45.611Z,20.70
2022-12-04T19:32:15.396Z,24.53
2022-12-04T19:34:44.907Z,20.43
2022-12-04T19:37:14.483Z,17.70
2022-12-04T19:39:44.253Z,19.37
2022-12-04T19:42:16.315Z,18.03
2022-12-04T19:44:48.790Z,18.73
2022-12-04T19:47:18.575Z,17.60
2022-12-04T19:49:48.047Z,19.00
2022-12-04T19:52:17.906Z,18.20
2022-12-04T19:54:47.429Z,20.60
2022-12-04T19:57:19.453Z,19.10
2022-12-04T19:59:48.928Z,20.20
2022-12-04T20:02:19.706Z,18.20
2022-12-04T20:04:49.304Z,19.23
2022-12-04T20:07:19.453Z,18.97
2022-12-04T20:09:52.381Z,19.83
2022-12-04T20:12:24.878Z,18.20
2022-12-04T20:14:54.486Z,19.50
2022-12-04T20:17:23.940Z,16.77
2022-12-04T20:19:53.379Z,18.77
2022-12-04T20:22:22.963Z,18.80
2022-12-04T20:24:52.432Z,18.63
2022-12-04T20:27:24.641Z,20.07
2022-12-04T20:29:54.254Z,18.80
2022-12-04T20:32:23.815Z,19.13
2022-12-04T20:34:53.321Z,19.90
2022-12-04T20:37:22.827Z,19.83
2022-12-04T20:39:52.368Z,18.80
2022-12-04T20:42:27.461Z,19.20
2022-12-04T20:45:01.267Z,20.00
2022-12-04T20:47:31.677Z,19.83
2022-12-04T20:50:01.367Z,19.67
2022-12-04T20:52:30.791Z,20.33
2022-12-04T20:55:00.188Z,18.80
2022-12-04T20:57:32.972Z,18.77
2022-12-04T21:00:02.479Z,18.30
2022-12-04T21:02:31.948Z,18.27
2022-12-04T21:05:01.536Z,18.90
2022-12-04T21:07:31.106Z,19.10
2022-12-04T21:10:01.039Z,18.47
2022-12-04T21:12:45.650Z,18.90
2022-12-04T21:15:27.380Z,17.77
2022-12-04T21:17:56.809Z,19.80
2022-12-04T21:20:26.388Z,26.70
2022-12-04T21:22:55.927Z,29.70
2022-12-04T21:25:26.426Z,19.50
2022-12-04T21:27:58.528Z,18.57
2022-12-04T21:30:27.995Z,19.47
2022-12-04T21:32:57.408Z,17.50
2022-12-04T21:35:28.135Z,20.17
2022-12-04T21:37:57.660Z,21.27
2022-12-04T21:40:27.206Z,19.60
2022-12-04T21:42:59.248Z,20.17
2022-12-04T21:45:28.784Z,19.30
2022-12-04T21:47:58.617Z,19.80
2022-12-04T21:50:28.114Z,17.57
2022-12-04T21:52:57.565Z,18.77
2022-12-04T21:55:27.122Z,18.87
2022-12-04T21:57:59.159Z,18.50
2022-12-04T22:00:28.652Z,18.97
2022-12-04T22:02:59.593Z,17.70
2022-12-04T22:05:29.081Z,19.20
2022-12-04T22:07:58.655Z,17.33
2022-12-04T22:10:28.455Z,18.90
2022-12-04T22:13:00.520Z,18.30
2022-12-04T22:15:29.991Z,20.23
2022-12-04T22:17:59.448Z,18.13
2022-12-04T22:20:29.002Z,17.90
2022-12-04T22:22:58.507Z,19.50
2022-12-04T22:25:28.035Z,19.30
2022-12-04T22:28:00.587Z,17.47
2022-12-04T22:30:30.606Z,17.07
2022-12-04T22:33:00.114Z,18.13
2022-12-04T22:35:29.609Z,17.50
2022-12-04T22:37:59.108Z,18.10
2022-12-04T22:40:28.734Z,16.20
2022-12-04T22:43:00.819Z,15.80
2022-12-04T22:45:30.295Z,16.90
2022-12-04T22:47:59.767Z,17.00
2022-12-04T22:50:29.279Z,16.13
2022-12-04T22:52:58.906Z,16.77
2022-12-04T22:55:28.511Z,16.50
2022-12-04T22:58:00.682Z,17.00
2022-12-04T23:00:30.213Z,17.30
2022-12-04T23:02:59.756Z,17.80
2022-12-04T23:05:29.330Z,19.57
2022-12-04T23:07:58.872Z,16.00
2022-12-04T23:10:28.403Z,16.57
2022-12-04T23:13:00.567Z,15.60
2022-12-04T23:15:30.328Z,18.10
2022-12-04T23:17:59.844Z,17.87
2022-12-04T23:20:29.326Z,16.90
2022-12-04T23:22:59.302Z,19.20
2022-12-04T23:25:28.897Z,17.80
2022-12-04T23:28:00.950Z,16.60
2022-12-04T23:30:32.689Z,17.20
2022-12-04T23:33:04.578Z,17.37
2022-12-04T23:35:34.060Z,18.10
2022-12-04T23:38:03.536Z,16.70
2022-12-04T23:40:33.057Z,17.20
2022-12-04T23:43:05.086Z,17.80
2022-12-04T23:45:34.619Z,15.23
2022-12-04T23:48:04.115Z,16.27
2022-12-04T23:50:33.816Z,17.53
2022-12-04T23:53:03.350Z,17.23
2022-12-04T23:55:34.663Z,15.77
2022-12-04T23:58:07.140Z,16.93
